Etusivu
METAR-TAF:

METAR-TAF

Lentoasemat :

Bagdad, Irak

Bagdadin kansainvälinen lentoasema

Leveyspiiri: 33-15-45N, Pituuspiiri: 44-14-04E, korkeus merenpinnasta: 35 m

Tämänhetkinen sää

Tämä raportti tehtiin 55 minuuttia sitten, kello 21.00 UTC
Tuuli 7 kn lännestä/luoteesta
Lämpötila 8°C
Kosteus 53%
Ilmanpaine 1021 hPa
Näkyvyys 10 km tai enemmän
ei pilviä alle 1500 m:ssä eikä cumulonimbus-pilviä

METAR: ORBI 122100Z 30007KT CAVOK 08/M01 Q1021 NOSIG

Aika: 00:55 (21:55 UTC)

Sääennuste

Tämä raportti tehtiin 5 tuntia ja 55 minuuttia sitten, kello 16.00 UTC
Ennuste voimassa 12. päivästä klo 18 UTC - 13. päivään klo 18 UTC
Tuuli 10 kn luoteesta
Näkyvyys: 8000 m
Tulossa
13. päivästä klo 12 UTC - 13. päivään klo 14 UTC
Tuuli 5 kn etelästä/kaakosta

TAF: ORBI 121600Z 1218/1318 32010KT 8000 NSC BECMG 1312/1314 16005KT

Säähavainnot ja -ennusteet yli 4000 lentoasemalta (METAR- ja TAF-raportit).

Käytössä olevat sääasemat on merkitty karttaan keltaisilla ja punaisilla pisteillä.

Aseta hiiri pisteen päälle nähdäksesi sääaseman nimen.

Klikkaa sitten nähdäksesi säähavainnot ja -ennusteet.

Kartan vaihtaminen: klikkaa mustalla rastilla varustettuja vihreitä pisteitä, niin voit zoomata sisään; viivalla varustettua vihreää pistettä, niin voit zoomata ulos tai vihreitä nuolia, niin pääset viereisille kartoille.


METAR-TAF: